createdAt,value
2023-01-19T00:00:51.251Z,16.50
2023-01-19T00:03:18.445Z,15.25
2023-01-19T00:05:45.667Z,15.07
2023-01-19T00:08:15.549Z,15.82
2023-01-19T00:10:44.031Z,16.08
2023-01-19T00:13:10.773Z,14.80
2023-01-19T00:15:37.465Z,15.73
2023-01-19T00:18:04.214Z,14.50
2023-01-19T00:20:35.578Z,15.02
2023-01-19T00:23:04.634Z,13.43
2023-01-19T00:25:31.349Z,13.27
2023-01-19T00:28:00.536Z,13.30
2023-01-19T00:30:28.218Z,13.13
2023-01-19T00:32:54.805Z,14.13
2023-01-19T00:35:21.431Z,14.25
2023-01-19T00:37:48.100Z,13.13
2023-01-19T00:40:14.849Z,14.25
2023-01-19T00:42:44.170Z,11.40
2023-01-19T00:45:13.521Z,12.20
2023-01-19T00:47:40.322Z,12.75
2023-01-19T00:50:11.752Z,12.48
2023-01-19T00:52:40.287Z,12.50
2023-01-19T00:55:15.939Z,12.82
2023-01-19T00:57:42.773Z,13.13
2023-01-19T01:00:13.638Z,12.75
2023-01-19T01:02:41.778Z,12.93
2023-01-19T01:05:08.973Z,12.52
2023-01-19T01:07:41.643Z,12.85
2023-01-19T01:10:10.515Z,12.07
2023-01-19T01:12:38.132Z,12.35
2023-01-19T01:15:06.822Z,12.85
2023-01-19T01:17:33.440Z,12.80
2023-01-19T01:20:00.196Z,13.35
2023-01-19T01:22:27.300Z,12.48
2023-01-19T01:24:54.012Z,13.07
2023-01-19T01:27:20.783Z,12.25
2023-01-19T01:29:48.189Z,13.07
2023-01-19T01:32:15.745Z,13.00
2023-01-19T01:34:42.808Z,12.98
2023-01-19T01:37:09.788Z,12.52
2023-01-19T01:39:36.849Z,12.93
2023-01-19T01:42:15.437Z,12.75
2023-01-19T01:44:54.537Z,11.73
2023-01-19T01:47:36.201Z,12.18
2023-01-19T01:53:06.089Z,10.65
2023-01-19T01:55:39.747Z,12.95
2023-01-19T01:58:07.958Z,11.07
2023-01-19T02:00:54.665Z,12.27
2023-01-19T02:03:24.044Z,12.40
2023-01-19T02:05:51.717Z,13.05
2023-01-19T02:09:14.414Z,13.50
2023-01-19T02:12:00.454Z,13.40
2023-01-19T02:14:27.421Z,12.52
2023-01-19T02:16:54.043Z,12.40
2023-01-19T02:19:34.211Z,14.52
2023-01-19T02:22:11.604Z,13.90
2023-01-19T02:24:38.367Z,13.85
2023-01-19T02:27:05.959Z,13.27
2023-01-19T02:29:33.510Z,14.40
2023-01-19T02:32:01.990Z,14.05
2023-01-19T02:34:29.557Z,13.80
2023-01-19T02:37:07.290Z,14.77
2023-01-19T02:39:50.616Z,14.68
2023-01-19T02:42:22.242Z,15.25
2023-01-19T02:44:51.546Z,15.15
2023-01-19T02:47:18.319Z,14.60
2023-01-19T02:49:45.114Z,14.88
2023-01-19T02:52:17.603Z,13.15
2023-01-19T02:55:06.255Z,14.57
2023-01-19T02:58:09.871Z,14.52
2023-01-19T03:00:49.865Z,13.20
2023-01-19T03:03:32.279Z,14.07
2023-01-19T03:06:36.365Z,14.32
2023-01-19T03:09:11.087Z,13.98
2023-01-19T03:11:42.330Z,12.88
2023-01-19T03:14:19.879Z,13.73
2023-01-19T03:16:49.676Z,13.73
2023-01-19T03:19:27.160Z,12.68
2023-01-19T03:21:59.523Z,12.95
2023-01-19T03:24:30.760Z,13.63
2023-01-19T03:27:06.725Z,13.55
2023-01-19T03:29:34.847Z,12.80
2023-01-19T03:32:06.142Z,14.27
2023-01-19T03:34:34.631Z,13.00
2023-01-19T03:37:04.593Z,13.93
2023-01-19T03:39:31.863Z,13.60
2023-01-19T03:42:09.255Z,12.93
2023-01-19T03:44:38.565Z,13.88
2023-01-19T03:47:07.200Z,13.88
2023-01-19T03:49:36.127Z,13.65
2023-01-19T03:52:02.673Z,13.70
2023-01-19T03:54:29.567Z,13.63
2023-01-19T03:56:56.153Z,14.23
2023-01-19T03:59:22.802Z,13.07
2023-01-19T04:01:49.592Z,14.02
2023-01-19T04:04:16.547Z,13.60
2023-01-19T04:06:43.995Z,13.73
2023-01-19T04:09:10.662Z,14.00
2023-01-19T04:11:37.311Z,12.85
2023-01-19T04:14:04.203Z,14.85
2023-01-19T04:16:30.734Z,14.20
2023-01-19T04:18:57.259Z,13.85
2023-01-19T04:21:23.864Z,12.63
2023-01-19T04:23:50.407Z,12.98
2023-01-19T04:26:17.007Z,13.57
2023-01-19T04:28:43.637Z,13.43
2023-01-19T04:31:10.594Z,13.98
2023-01-19T04:33:37.342Z,13.52
2023-01-19T04:36:04.270Z,14.02
2023-01-19T04:38:30.869Z,13.63
2023-01-19T04:40:57.466Z,13.10
2023-01-19T04:43:24.537Z,14.02
2023-01-19T04:45:51.862Z,12.88
2023-01-19T04:48:19.428Z,14.20
2023-01-19T04:50:46.553Z,14.20
2023-01-19T04:53:13.986Z,14.80
2023-01-19T04:55:40.854Z,13.63
2023-01-19T04:58:07.479Z,13.57
2023-01-19T05:00:34.195Z,15.23
2023-01-19T05:03:01.656Z,15.05
2023-01-19T05:05:28.733Z,14.60
2023-01-19T05:07:55.462Z,13.55
2023-01-19T05:10:22.166Z,15.32
2023-01-19T05:12:48.759Z,15.85
2023-01-19T05:15:15.449Z,16.17
2023-01-19T05:17:42.367Z,16.10
2023-01-19T05:20:11.298Z,15.15
2023-01-19T05:22:39.119Z,16.70
2023-01-19T05:25:09.249Z,16.77
2023-01-19T05:27:37.191Z,16.70
2023-01-19T05:30:05.408Z,16.25
2023-01-19T05:32:32.113Z,16.42
2023-01-19T05:34:58.881Z,15.90
2023-01-19T05:37:25.642Z,16.17
2023-01-19T05:39:52.644Z,18.40
2023-01-19T05:42:19.250Z,19.30
2023-01-19T05:44:45.843Z,17.63
2023-01-19T05:47:12.424Z,17.27
2023-01-19T05:49:38.951Z,16.08
2023-01-19T05:52:05.494Z,17.27
2023-01-19T05:54:32.102Z,16.70
2023-01-19T05:56:58.619Z,15.70
2023-01-19T05:59:25.347Z,16.40
2023-01-19T06:01:52.919Z,16.50
2023-01-19T06:04:20.184Z,17.02
2023-01-19T06:06:50.309Z,16.60
2023-01-19T06:09:17.253Z,17.42
2023-01-19T06:11:44.684Z,18.13
2023-01-19T06:14:11.631Z,17.35
2023-01-19T06:16:38.585Z,15.48
2023-01-19T06:19:05.278Z,16.40
2023-01-19T06:21:32.252Z,16.75
2023-01-19T06:23:58.895Z,16.73
2023-01-19T06:26:26.192Z,16.63
2023-01-19T06:28:52.996Z,13.80
2023-01-19T06:31:19.677Z,14.90
2023-01-19T06:33:46.411Z,14.32
2023-01-19T06:36:13.076Z,14.23
2023-01-19T06:38:40.199Z,13.85
2023-01-19T06:41:06.892Z,14.85
2023-01-19T06:43:33.546Z,13.40
2023-01-19T06:46:03.385Z,13.07
2023-01-19T06:48:30.098Z,13.60
2023-01-19T06:50:58.763Z,13.52
2023-01-19T06:53:27.827Z,14.13
2023-01-19T06:55:58.102Z,12.13
2023-01-19T06:58:25.225Z,13.43
2023-01-19T07:00:52.185Z,14.48
2023-01-19T07:03:21.982Z,13.15
2023-01-19T07:05:52.771Z,14.27
2023-01-19T07:08:19.590Z,14.15
2023-01-19T07:11:24.948Z,14.60
2023-01-19T07:13:33.638Z,14.80
2023-01-19T07:16:08.653Z,13.93
2023-01-19T07:18:36.330Z,15.02
2023-01-19T07:21:04.110Z,15.63
2023-01-19T07:23:30.928Z,14.60
2023-01-19T07:25:58.764Z,14.88
2023-01-19T07:28:25.457Z,15.15
2023-01-19T07:30:53.397Z,15.00
2023-01-19T07:33:22.001Z,15.70
2023-01-19T07:35:49.433Z,15.38
2023-01-19T07:38:17.928Z,15.57
2023-01-19T07:40:46.906Z,15.50
2023-01-19T07:43:14.213Z,16.15
2023-01-19T07:45:40.927Z,15.55
2023-01-19T07:48:07.669Z,15.25
2023-01-19T07:50:34.275Z,15.00
2023-01-19T07:53:08.614Z,15.32
2023-01-19T07:55:35.949Z,14.88
2023-01-19T07:58:06.415Z,14.98
2023-01-19T08:00:35.115Z,15.35
2023-01-19T08:03:03.151Z,14.95
2023-01-19T08:05:30.020Z,15.00
2023-01-19T08:07:57.773Z,15.55
2023-01-19T08:10:26.578Z,14.57
2023-01-19T08:12:57.595Z,14.13
2023-01-19T08:15:25.157Z,13.27
2023-01-19T08:18:00.127Z,14.05
2023-01-19T08:20:28.714Z,14.50
2023-01-19T08:22:59.933Z,13.85
2023-01-19T08:25:34.905Z,13.77
2023-01-19T08:28:03.456Z,13.40
2023-01-19T08:30:30.294Z,14.23
2023-01-19T08:33:03.905Z,13.02
2023-01-19T08:35:31.508Z,13.93
2023-01-19T08:38:01.121Z,13.32
2023-01-19T08:40:29.661Z,13.93
2023-01-19T08:43:08.179Z,13.93
2023-01-19T08:45:36.206Z,12.82
2023-01-19T08:48:04.099Z,13.65
2023-01-19T08:50:32.508Z,12.93
2023-01-19T08:53:00.961Z,12.48
2023-01-19T08:55:29.322Z,12.55
2023-01-19T08:57:57.879Z,12.70
2023-01-19T09:00:25.367Z,11.98
2023-01-19T09:02:52.098Z,12.50
2023-01-19T09:05:18.897Z,12.20
2023-01-19T09:07:47.868Z,11.75
2023-01-19T09:10:16.004Z,12.18
2023-01-19T09:12:43.791Z,10.60
2023-01-19T09:15:12.208Z,12.32
2023-01-19T09:17:38.833Z,12.73
2023-01-19T09:20:06.047Z,11.95
2023-01-19T09:22:33.292Z,11.50
2023-01-19T09:25:00.205Z,12.50
2023-01-19T09:27:26.898Z,12.38
2023-01-19T09:29:53.947Z,13.27
2023-01-19T09:32:21.659Z,12.65
2023-01-19T09:34:48.953Z,12.73
2023-01-19T09:37:16.191Z,12.88
2023-01-19T09:39:42.888Z,13.13
2023-01-19T09:42:29.157Z,13.63
2023-01-19T09:44:55.906Z,12.18
2023-01-19T09:47:28.097Z,12.35
2023-01-19T09:50:04.229Z,12.00
2023-01-19T09:52:35.808Z,12.15
2023-01-19T09:55:02.412Z,11.68
2023-01-19T09:57:30.151Z,12.32
2023-01-19T09:59:59.656Z,11.13
2023-01-19T10:02:37.596Z,12.23
2023-01-19T10:05:22.603Z,11.35
2023-01-19T10:08:08.546Z,10.85
2023-01-19T10:10:37.485Z,10.98
2023-01-19T10:13:32.614Z,11.57
2023-01-19T10:16:39.544Z,10.57
2023-01-19T10:19:29.241Z,10.95
2023-01-19T10:22:00.148Z,10.50
2023-01-19T10:24:40.144Z,10.15
2023-01-19T10:27:20.829Z,11.13
2023-01-19T10:29:47.679Z,10.45
2023-01-19T10:32:17.963Z,10.00
2023-01-19T10:34:44.632Z,11.02
2023-01-19T10:37:18.486Z,9.73
2023-01-19T10:39:54.855Z,10.35
2023-01-19T10:42:21.554Z,10.50
2023-01-19T10:44:49.512Z,10.57
2023-01-19T10:47:19.161Z,10.80
2023-01-19T10:49:47.517Z,10.77
2023-01-19T10:52:42.039Z,10.70
2023-01-19T10:55:26.136Z,10.23
2023-01-19T10:57:53.600Z,10.93
2023-01-19T11:00:39.653Z,11.43
2023-01-19T11:03:30.460Z,11.55
2023-01-19T11:06:24.840Z,12.52
2023-01-19T11:08:52.941Z,11.90
2023-01-19T11:11:21.386Z,11.63
2023-01-19T11:14:06.876Z,12.05
2023-01-19T11:19:03.124Z,11.73
2023-01-19T11:21:31.894Z,11.50
2023-01-19T11:24:01.849Z,12.32
2023-01-19T11:26:44.818Z,13.20
2023-01-19T11:29:29.843Z,11.27
2023-01-19T11:32:19.019Z,13.07
2023-01-19T11:34:45.690Z,12.82
2023-01-19T11:37:18.406Z,12.50
2023-01-19T11:39:53.478Z,13.70
2023-01-19T11:45:02.596Z,13.48
2023-01-19T11:47:49.561Z,14.15
2023-01-19T11:50:33.323Z,13.60
2023-01-19T11:53:06.866Z,12.73
2023-01-19T11:55:52.301Z,13.45
2023-01-19T12:00:51.558Z,12.75
2023-01-19T12:03:25.261Z,13.02
2023-01-19T12:05:59.030Z,13.15
2023-01-19T12:08:56.225Z,13.68
2023-01-19T12:11:31.517Z,12.82
2023-01-19T12:13:59.942Z,12.20
2023-01-19T12:16:32.834Z,12.98
2023-01-19T12:19:14.686Z,13.27
2023-01-19T12:21:41.706Z,13.13
2023-01-19T12:24:36.385Z,13.68
2023-01-19T12:27:17.956Z,13.10
2023-01-19T12:29:46.224Z,12.93
2023-01-19T12:32:19.120Z,13.02
2023-01-19T12:34:48.225Z,12.93
2023-01-19T12:37:35.938Z,13.60
2023-01-19T12:40:21.985Z,11.98
2023-01-19T12:42:55.347Z,12.40
2023-01-19T12:45:25.779Z,13.55
2023-01-19T12:47:56.184Z,13.55
2023-01-19T12:50:25.826Z,12.50
2023-01-19T12:52:57.823Z,12.88
2023-01-19T12:55:30.862Z,13.15
2023-01-19T12:58:00.550Z,11.98
2023-01-19T13:00:33.240Z,13.18
2023-01-19T13:03:24.412Z,12.98
2023-01-19T13:05:53.173Z,13.38
2023-01-19T13:08:22.585Z,12.27
2023-01-19T13:11:10.466Z,12.85
2023-01-19T13:14:03.049Z,12.45
2023-01-19T13:16:29.846Z,12.43
2023-01-19T13:19:01.609Z,11.48
2023-01-19T13:21:32.806Z,12.00
2023-01-19T13:24:08.497Z,12.93
2023-01-19T13:26:40.752Z,12.23
2023-01-19T13:29:32.949Z,13.15
2023-01-19T13:32:04.286Z,13.98
2023-01-19T13:34:43.680Z,13.32
2023-01-19T13:37:20.171Z,13.07
2023-01-19T13:39:50.031Z,13.45
2023-01-19T13:42:36.159Z,12.65
2023-01-19T13:45:26.895Z,12.95
2023-01-19T13:47:56.600Z,13.77
2023-01-19T13:50:42.606Z,13.20
2023-01-19T13:53:21.272Z,12.95
2023-01-19T13:55:48.053Z,13.77
2023-01-19T13:58:22.382Z,13.27
2023-01-19T14:00:49.136Z,12.98
2023-01-19T14:03:21.457Z,13.88
2023-01-19T14:05:53.978Z,12.80
2023-01-19T14:08:22.079Z,13.32
2023-01-19T14:10:56.129Z,14.43
2023-01-19T14:13:25.641Z,14.23
2023-01-19T14:15:55.361Z,14.20
2023-01-19T14:18:26.253Z,12.80
2023-01-19T14:21:07.749Z,14.02
2023-01-19T14:23:49.276Z,13.63
2023-01-19T14:26:38.152Z,13.90
2023-01-19T14:29:31.835Z,13.95
2023-01-19T14:32:15.917Z,14.25
2023-01-19T14:34:53.905Z,16.58
2023-01-19T14:37:29.286Z,14.52
2023-01-19T14:40:00.655Z,15.38
2023-01-19T14:42:53.597Z,15.57
2023-01-19T14:45:28.227Z,15.75
2023-01-19T14:48:07.381Z,16.38
2023-01-19T14:50:41.477Z,16.75
2023-01-19T14:53:28.355Z,16.37
2023-01-19T14:55:59.174Z,16.42
2023-01-19T14:58:27.494Z,15.95
2023-01-19T15:00:57.082Z,17.25
2023-01-19T15:03:38.580Z,21.98
2023-01-19T15:06:18.598Z,16.67
2023-01-19T15:08:46.083Z,15.93
2023-01-19T15:11:26.391Z,15.07
2023-01-19T15:13:53.157Z,16.02
2023-01-19T15:16:20.236Z,15.52
2023-01-19T15:18:46.936Z,15.55
2023-01-19T15:21:23.567Z,14.57
2023-01-19T15:23:50.425Z,15.60
2023-01-19T15:26:20.592Z,17.20
2023-01-19T15:28:51.198Z,13.90
2023-01-19T15:31:23.356Z,15.02
2023-01-19T15:33:50.299Z,15.10
2023-01-19T15:36:19.745Z,15.95
2023-01-19T15:38:47.160Z,14.75
2023-01-19T15:41:29.728Z,14.57
2023-01-19T15:43:56.877Z,14.30
2023-01-19T15:46:25.621Z,14.65
2023-01-19T15:48:53.254Z,15.50
2023-01-19T15:51:22.703Z,14.18
2023-01-19T15:53:49.832Z,13.95
2023-01-19T15:56:19.202Z,14.40
2023-01-19T15:58:46.053Z,14.90
2023-01-19T16:01:14.527Z,15.20
2023-01-19T16:03:41.707Z,13.75
2023-01-19T16:06:09.015Z,15.73
2023-01-19T16:08:36.457Z,16.45
2023-01-19T16:11:05.173Z,20.48
2023-01-19T16:13:32.302Z,17.20
2023-01-19T16:16:03.312Z,18.33
2023-01-19T16:18:30.148Z,17.77
2023-01-19T16:20:56.780Z,15.25
2023-01-19T16:23:23.292Z,14.88
2023-01-19T16:26:04.887Z,13.88
2023-01-19T16:28:31.740Z,15.85
2023-01-19T16:30:58.305Z,16.58
2023-01-19T16:33:25.028Z,17.13
2023-01-19T16:35:52.329Z,16.20
2023-01-19T16:38:19.230Z,15.65
2023-01-19T16:40:46.487Z,16.83
2023-01-19T16:43:15.112Z,18.30
2023-01-19T16:46:16.593Z,17.02
2023-01-19T16:48:43.229Z,15.35
2023-01-19T16:51:09.763Z,14.57
2023-01-19T16:53:36.842Z,16.50
2023-01-19T16:56:10.936Z,14.93
2023-01-19T16:58:38.302Z,16.15
2023-01-19T17:05:24.111Z,16.13
2023-01-19T17:07:50.768Z,15.52
2023-01-19T17:10:17.462Z,16.88
2023-01-19T17:12:44.058Z,16.05
2023-01-19T17:15:10.966Z,14.80
2023-01-19T17:17:37.875Z,15.95
2023-01-19T17:20:04.926Z,15.07
2023-01-19T17:22:31.531Z,15.68
2023-01-19T17:24:58.139Z,16.02
2023-01-19T17:27:24.759Z,14.68
2023-01-19T17:29:51.720Z,17.10
2023-01-19T17:32:18.480Z,14.95
2023-01-19T17:34:46.614Z,17.38
2023-01-19T17:37:13.272Z,15.07
2023-01-19T17:39:40.047Z,15.50
2023-01-19T17:42:06.557Z,15.75
2023-01-19T17:44:33.158Z,15.77
2023-01-19T17:47:00.115Z,17.35
2023-01-19T17:49:26.808Z,15.80
2023-01-19T17:51:54.844Z,16.35
2023-01-19T17:54:22.054Z,16.20
2023-01-19T17:56:50.828Z,17.27
2023-01-19T17:59:17.559Z,15.25
2023-01-19T18:01:45.515Z,14.98
2023-01-19T18:04:12.169Z,15.13
2023-01-19T18:06:39.325Z,15.70
2023-01-19T18:09:07.304Z,16.15
2023-01-19T18:11:34.818Z,62.25
2023-01-19T18:14:02.107Z,23.17
2023-01-19T18:16:29.905Z,28.05
2023-01-19T18:18:57.444Z,20.05
2023-01-19T18:21:27.946Z,22.77
2023-01-19T18:24:01.420Z,21.60
2023-01-19T18:26:28.805Z,21.65
2023-01-19T18:28:56.877Z,20.67
2023-01-19T18:31:24.129Z,19.92
2023-01-19T18:33:50.809Z,17.88
2023-01-19T18:36:18.080Z,17.05
2023-01-19T18:38:45.226Z,17.35
2023-01-19T18:41:14.664Z,18.15
2023-01-19T18:43:41.463Z,18.10
2023-01-19T18:46:08.761Z,17.80
2023-01-19T18:48:38.324Z,18.48
2023-01-19T18:51:10.017Z,20.38
2023-01-19T18:53:38.020Z,20.92
2023-01-19T18:56:05.440Z,19.95
2023-01-19T18:58:33.259Z,19.70
2023-01-19T19:01:00.964Z,18.00
2023-01-19T19:03:28.425Z,19.35
2023-01-19T19:05:55.334Z,19.00
2023-01-19T19:08:22.232Z,19.45
2023-01-19T19:10:48.837Z,18.50
2023-01-19T19:13:17.146Z,18.77
2023-01-19T19:15:46.537Z,19.63
2023-01-19T19:18:13.824Z,19.38
2023-01-19T19:20:41.962Z,19.02
2023-01-19T19:23:09.578Z,20.75
2023-01-19T19:25:37.004Z,19.88
2023-01-19T19:28:04.042Z,20.02
2023-01-19T19:30:34.240Z,20.60
2023-01-19T19:33:01.050Z,20.95
2023-01-19T19:35:28.192Z,20.20
2023-01-19T19:37:57.486Z,20.17
2023-01-19T19:40:28.040Z,17.55
2023-01-19T19:42:56.991Z,19.20
2023-01-19T19:45:25.182Z,20.83
2023-01-19T19:47:51.788Z,19.05
2023-01-19T19:50:18.625Z,19.23
2023-01-19T19:52:45.328Z,20.35
2023-01-19T19:55:12.526Z,19.98
2023-01-19T19:57:39.333Z,19.45
2023-01-19T20:00:06.972Z,18.73
2023-01-19T20:02:33.552Z,19.42
2023-01-19T20:05:00.103Z,19.08
2023-01-19T20:07:26.728Z,21.08
2023-01-19T20:09:54.958Z,24.13
2023-01-19T20:12:21.617Z,24.83
2023-01-19T20:14:48.537Z,21.65
2023-01-19T20:17:15.157Z,22.50
2023-01-19T20:19:41.894Z,23.33
2023-01-19T20:22:08.554Z,24.10
2023-01-19T20:24:35.123Z,23.85
2023-01-19T20:27:01.728Z,22.73
2023-01-19T20:29:28.334Z,22.70
2023-01-19T20:31:56.157Z,20.75
2023-01-19T20:34:25.749Z,19.27
2023-01-19T20:36:53.771Z,21.10
2023-01-19T20:39:22.118Z,21.65
2023-01-19T20:41:51.069Z,21.60
2023-01-19T20:44:23.582Z,19.88
2023-01-19T20:46:51.057Z,20.70
2023-01-19T20:49:19.142Z,20.58
2023-01-19T20:51:46.950Z,22.20
2023-01-19T20:54:16.168Z,20.23
2023-01-19T20:56:42.939Z,21.38
2023-01-19T20:59:10.571Z,21.33
2023-01-19T21:01:38.324Z,21.63
2023-01-19T21:04:05.183Z,21.13
2023-01-19T21:06:31.918Z,19.70
2023-01-19T21:08:58.593Z,19.92
2023-01-19T21:11:26.023Z,19.75
2023-01-19T21:13:55.909Z,20.80
2023-01-19T21:16:25.412Z,20.77
2023-01-19T21:18:52.659Z,18.83
2023-01-19T21:21:29.898Z,22.70
2023-01-19T21:23:59.248Z,20.75
2023-01-19T21:26:26.176Z,24.48
2023-01-19T21:28:53.466Z,21.85
2023-01-19T21:31:22.445Z,20.58
2023-01-19T21:33:53.125Z,22.95
2023-01-19T21:36:21.106Z,21.90
2023-01-19T21:38:48.154Z,23.02
2023-01-19T21:41:16.221Z,25.13
2023-01-19T21:43:43.092Z,23.65
2023-01-19T21:46:14.313Z,23.48
2023-01-19T21:48:42.119Z,25.02
2023-01-19T21:51:09.085Z,23.73
2023-01-19T21:53:35.711Z,26.08
2023-01-19T21:56:02.297Z,28.48
2023-01-19T21:58:28.911Z,22.60
2023-01-19T22:01:04.596Z,24.13
2023-01-19T22:03:31.286Z,24.33
2023-01-19T22:06:07.193Z,24.35
2023-01-19T22:08:34.278Z,26.35
2023-01-19T22:11:08.981Z,30.00
2023-01-19T22:13:38.371Z,27.58
2023-01-19T22:16:08.731Z,27.60
2023-01-19T22:18:36.573Z,32.35
2023-01-19T22:21:11.345Z,31.63
2023-01-19T22:23:38.573Z,31.38
2023-01-19T22:26:06.094Z,30.30
2023-01-19T22:28:32.748Z,29.20
2023-01-19T22:31:14.186Z,29.27
2023-01-19T22:33:40.960Z,28.30
2023-01-19T22:36:13.193Z,30.85
2023-01-19T22:38:40.987Z,26.92
2023-01-19T22:41:19.245Z,26.98
2023-01-19T22:43:46.538Z,32.60
2023-01-19T22:46:13.397Z,30.23
2023-01-19T22:48:40.479Z,30.85
2023-01-19T22:51:07.500Z,28.90
2023-01-19T22:53:34.176Z,28.55
2023-01-19T22:56:08.552Z,30.73
2023-01-19T22:58:35.078Z,29.52
2023-01-19T23:01:09.284Z,27.45
2023-01-19T23:03:37.140Z,29.67
2023-01-19T23:06:12.923Z,29.73
2023-01-19T23:08:40.319Z,25.90
2023-01-19T23:11:18.939Z,26.90
2023-01-19T23:13:46.248Z,29.73
2023-01-19T23:16:13.009Z,26.55
2023-01-19T23:18:40.755Z,29.50
2023-01-19T23:21:16.506Z,28.65
2023-01-19T23:23:43.689Z,27.80
2023-01-19T23:26:12.887Z,26.70
2023-01-19T23:28:40.412Z,27.27
2023-01-19T23:31:13.171Z,25.02
2023-01-19T23:33:41.429Z,23.40
2023-01-19T23:36:08.467Z,26.27
2023-01-19T23:38:35.004Z,23.05
2023-01-19T23:41:01.547Z,24.38
2023-01-19T23:43:28.066Z,26.58
2023-01-19T23:45:55.038Z,25.92
2023-01-19T23:48:21.904Z,23.60
2023-01-19T23:50:48.545Z,26.67
2023-01-19T23:53:15.113Z,23.95
2023-01-19T23:55:41.858Z,24.27
2023-01-19T23:58:08.372Z,24.42
